Dallas, Texas
Traffic Map
Current Weather Conditions
Dallas, Texas
Broken Clouds
Broken Clouds
84°
Feels Like: 87°
Wind Chill: 84° Ceiling: 4700
Heat Index: 87° Visibility: 10mi
Dew Point: 67° Wind: 12mph
Humidity: 56% Direction: 120° (ESE)
Pressure: 29.92in Gusts: 0mph
Raw Report DataKDAL 200153Z 12010KT 10SM BKN047 BKN060 BKN140 29/19 A2992 RMK AO2 SLP125 T02890194
Traffic Incident Summary
Active as of:
Severity:
Category:
InformationThere was an issue retrieving the traffic information for this location. Please try a different location or try again shortly.
Advertisements
Track Severe Weather on mobile